createdAt,value
2018-04-15T00:00:08.270Z,14.25
2018-04-15T00:01:08.193Z,14.19
2018-04-15T00:02:08.285Z,14.17
2018-04-15T00:03:08.152Z,14.24
2018-04-15T00:04:08.198Z,14.14
2018-04-15T00:05:08.109Z,14.17
2018-04-15T00:06:08.110Z,14.20
2018-04-15T00:07:08.059Z,14.17
2018-04-15T00:08:08.125Z,14.19
2018-04-15T00:09:08.018Z,14.20
2018-04-15T00:10:08.035Z,14.17
2018-04-15T00:11:07.974Z,14.19
2018-04-15T00:12:08.049Z,14.16
2018-04-15T00:13:07.935Z,14.16
2018-04-15T00:14:07.961Z,14.17
2018-04-15T00:15:07.886Z,14.21
2018-04-15T00:16:07.976Z,14.13
2018-04-15T00:17:07.835Z,14.14
2018-04-15T00:18:07.884Z,14.20
2018-04-15T00:19:07.796Z,14.20
2018-04-15T00:20:07.796Z,14.24
2018-04-15T00:21:07.754Z,14.14
2018-04-15T00:22:07.814Z,14.24
2018-04-15T00:23:07.710Z,14.21
2018-04-15T00:24:07.723Z,14.24
2018-04-15T00:25:07.663Z,14.25
2018-04-15T00:26:07.739Z,14.25
2018-04-15T00:27:07.625Z,14.24
2018-04-15T00:28:07.651Z,14.27
2018-04-15T00:29:07.581Z,14.28
2018-04-15T00:30:07.665Z,14.27
2018-04-15T00:31:07.544Z,14.13
2018-04-15T00:32:07.576Z,14.16
2018-04-15T00:33:07.490Z,14.20
2018-04-15T00:34:07.488Z,14.17
2018-04-15T00:35:07.447Z,14.24
2018-04-15T00:36:07.502Z,14.14
2018-04-15T00:37:07.405Z,14.16
2018-04-15T00:38:07.414Z,14.16
2018-04-15T00:39:07.363Z,14.20
2018-04-15T00:40:07.427Z,14.13
2018-04-15T00:41:07.314Z,14.17
2018-04-15T00:42:07.338Z,14.16
2018-04-15T00:43:07.274Z,14.20
2018-04-15T00:44:07.356Z,14.19
2018-04-15T00:45:07.225Z,14.17
2018-04-15T00:46:07.263Z,14.04
2018-04-15T00:47:07.182Z,14.12
2018-04-15T00:48:07.176Z,14.09
2018-04-15T00:49:07.139Z,14.13
2018-04-15T00:50:07.189Z,14.20
2018-04-15T00:51:07.093Z,14.14
2018-04-15T00:52:07.100Z,14.10
2018-04-15T00:53:07.048Z,14.07
2018-04-15T00:54:07.115Z,14.16
2018-04-15T00:55:07.008Z,14.10
2018-04-15T00:56:07.031Z,14.10
2018-04-15T00:57:06.959Z,14.09
2018-04-15T00:58:07.042Z,14.16
2018-04-15T00:59:06.923Z,14.16
2018-04-15T01:00:06.953Z,14.16
2018-04-15T01:01:06.871Z,14.04
2018-04-15T01:02:06.865Z,14.12
2018-04-15T01:03:06.829Z,14.12
2018-04-15T01:04:06.879Z,14.16
2018-04-15T01:05:06.785Z,14.07
2018-04-15T01:06:06.790Z,14.13
2018-04-15T01:07:06.742Z,14.04
2018-04-15T01:08:06.805Z,14.10
2018-04-15T01:09:06.700Z,14.01
2018-04-15T01:10:06.719Z,14.07
2018-04-15T01:11:06.653Z,14.04
2018-04-15T01:12:06.734Z,13.95
2018-04-15T01:13:06.613Z,13.96
2018-04-15T01:14:06.643Z,13.91
2018-04-15T01:15:06.569Z,13.95
2018-04-15T01:16:06.555Z,13.96
2018-04-15T01:17:06.520Z,13.96
2018-04-15T01:18:06.567Z,13.95
2018-04-15T01:19:06.475Z,13.94
2018-04-15T01:20:06.481Z,13.99
2018-04-15T01:21:06.433Z,14.04
2018-04-15T01:22:06.495Z,13.96
2018-04-15T01:23:06.387Z,13.95
2018-04-15T01:24:06.406Z,14.06
2018-04-15T01:25:06.342Z,14.01
2018-04-15T01:26:06.418Z,13.96
2018-04-15T01:27:06.298Z,13.98
2018-04-15T01:28:06.332Z,13.99
2018-04-15T01:29:06.254Z,13.94
2018-04-15T01:30:06.345Z,13.92
2018-04-15T01:31:06.208Z,14.06
2018-04-15T01:32:06.256Z,13.98
2018-04-15T01:33:06.166Z,13.99
2018-04-15T01:34:06.169Z,13.96
2018-04-15T01:35:06.122Z,13.99
2018-04-15T01:36:06.183Z,13.95
2018-04-15T01:37:06.077Z,13.96
2018-04-15T01:38:06.095Z,13.96
2018-04-15T01:39:06.029Z,13.96
2018-04-15T01:40:06.108Z,14.01
2018-04-15T01:41:05.990Z,13.99
2018-04-15T01:42:06.019Z,13.96
2018-04-15T01:43:05.942Z,13.98
2018-04-15T01:44:06.032Z,13.98
2018-04-15T01:45:05.903Z,13.91
2018-04-15T01:46:05.945Z,13.91
2018-04-15T01:47:05.856Z,13.99
2018-04-15T01:48:05.857Z,13.95
2018-04-15T01:49:05.813Z,14.01
2018-04-15T01:50:05.871Z,14.02
2018-04-15T01:51:05.767Z,13.98
2018-04-15T01:52:05.784Z,13.95
2018-04-15T01:53:05.725Z,13.98
2018-04-15T01:54:05.796Z,13.96
2018-04-15T01:55:05.678Z,14.02
2018-04-15T01:56:05.709Z,14.02
2018-04-15T01:57:05.632Z,14.04
2018-04-15T01:58:05.723Z,13.98
2018-04-15T01:59:05.588Z,13.94
2018-04-15T02:00:05.634Z,13.96
2018-04-15T02:01:05.558Z,13.95
2018-04-15T02:02:05.546Z,13.98
2018-04-15T02:03:05.501Z,13.95
2018-04-15T02:04:05.559Z,13.89
2018-04-15T02:05:05.457Z,13.95
2018-04-15T02:06:05.472Z,13.89
2018-04-15T02:07:05.415Z,13.92
2018-04-15T02:08:05.485Z,13.91
2018-04-15T02:09:05.369Z,13.96
2018-04-15T02:10:05.397Z,13.91
2018-04-15T02:11:05.323Z,13.92
2018-04-15T02:12:05.411Z,13.91
2018-04-15T02:13:05.281Z,13.94
2018-04-15T02:14:05.323Z,13.92
2018-04-15T02:15:05.237Z,13.92
2018-04-15T02:16:05.235Z,13.84
2018-04-15T02:17:05.191Z,13.87
2018-04-15T02:18:05.251Z,13.88
2018-04-15T02:19:05.150Z,13.88
2018-04-15T02:20:05.160Z,13.89
2018-04-15T02:21:05.107Z,13.89
2018-04-15T02:22:05.177Z,13.83
2018-04-15T02:23:05.058Z,13.84
2018-04-15T02:24:05.095Z,13.80
2018-04-15T02:25:05.013Z,13.83
2018-04-15T02:26:05.106Z,13.77
2018-04-15T02:27:04.969Z,13.76
2018-04-15T02:28:05.018Z,13.81
2018-04-15T02:29:04.927Z,13.76
2018-04-15T02:30:04.926Z,13.77
2018-04-15T02:31:04.879Z,13.73
2018-04-15T02:32:04.944Z,13.76
2018-04-15T02:33:04.836Z,13.76
2018-04-15T02:34:04.856Z,13.77
2018-04-15T02:35:04.793Z,13.81
2018-04-15T02:36:04.865Z,13.80
2018-04-15T02:37:04.747Z,13.74
2018-04-15T02:38:04.776Z,13.65
2018-04-15T02:39:04.704Z,13.83
2018-04-15T02:40:04.797Z,13.77
2018-04-15T02:41:04.658Z,13.79
2018-04-15T02:42:04.704Z,13.73
2018-04-15T02:43:04.611Z,13.67
2018-04-15T02:44:04.616Z,13.77
2018-04-15T02:45:04.568Z,13.71
2018-04-15T02:46:04.632Z,13.74
2018-04-15T02:47:04.523Z,13.70
2018-04-15T02:48:04.549Z,13.67
2018-04-15T02:49:04.480Z,13.67
2018-04-15T02:50:04.556Z,13.67
2018-04-15T02:51:04.433Z,13.54
2018-04-15T02:52:04.470Z,13.58
2018-04-15T02:53:04.394Z,13.55
2018-04-15T02:54:04.478Z,13.65
2018-04-15T02:55:04.346Z,13.56
2018-04-15T02:56:04.392Z,13.55
2018-04-15T02:57:04.300Z,13.56
2018-04-15T02:58:04.303Z,13.56
2018-04-15T02:59:04.258Z,13.56
2018-04-15T03:00:04.317Z,13.54
2018-04-15T03:01:04.210Z,13.56
2018-04-15T03:02:04.230Z,13.52
2018-04-15T03:03:04.165Z,13.44
2018-04-15T03:04:04.241Z,13.56
2018-04-15T03:05:04.125Z,13.56
2018-04-15T03:06:04.152Z,13.52
2018-04-15T03:07:04.074Z,13.40
2018-04-15T03:08:04.065Z,13.59
2018-04-15T03:09:04.039Z,13.56
2018-04-15T03:10:04.079Z,13.51
2018-04-15T03:11:03.983Z,13.55
2018-04-15T03:12:04.000Z,13.55
2018-04-15T03:13:03.943Z,13.49
2018-04-15T03:14:04.003Z,13.51
2018-04-15T03:15:03.901Z,13.49
2018-04-15T03:16:03.914Z,13.47
2018-04-15T03:17:03.852Z,13.41
2018-04-15T03:18:03.928Z,13.37
2018-04-15T03:19:03.810Z,13.46
2018-04-15T03:20:03.840Z,13.43
2018-04-15T03:21:03.758Z,13.37
2018-04-15T03:22:03.752Z,13.46
2018-04-15T03:23:03.715Z,13.37
2018-04-15T03:24:03.765Z,13.38
2018-04-15T03:25:03.669Z,13.37
2018-04-15T03:26:03.678Z,13.30
2018-04-15T03:27:03.646Z,13.32
2018-04-15T03:28:03.694Z,13.33
2018-04-15T03:29:03.581Z,13.29
2018-04-15T03:30:03.604Z,13.24
2018-04-15T03:31:03.535Z,13.25
2018-04-15T03:32:03.619Z,13.21
2018-04-15T03:33:03.487Z,13.25
2018-04-15T03:34:03.528Z,13.25
2018-04-15T03:35:03.445Z,13.27
2018-04-15T03:36:03.442Z,13.21
2018-04-15T03:37:03.398Z,13.27
2018-04-15T03:38:03.456Z,13.24
2018-04-15T03:39:03.355Z,13.22
2018-04-15T03:40:03.367Z,13.22
2018-04-15T03:41:03.306Z,13.20
2018-04-15T03:42:03.381Z,13.18
2018-04-15T03:43:03.261Z,13.21
2018-04-15T03:44:03.290Z,13.22
2018-04-15T03:45:03.215Z,13.20
2018-04-15T03:46:03.205Z,13.22
2018-04-15T03:47:03.169Z,13.21
2018-04-15T03:48:03.219Z,13.18
2018-04-15T03:49:03.130Z,13.18
2018-04-15T03:50:03.130Z,13.17
2018-04-15T03:51:03.079Z,13.20
2018-04-15T03:52:03.143Z,13.20
2018-04-15T03:53:03.039Z,13.14
2018-04-15T03:54:03.056Z,13.15
2018-04-15T03:55:02.989Z,13.15
2018-04-15T03:56:03.069Z,13.11
2018-04-15T03:57:02.942Z,13.17
2018-04-15T03:58:02.981Z,13.11
2018-04-15T03:59:02.909Z,13.14
2018-04-15T04:00:02.893Z,13.09
2018-04-15T04:01:02.855Z,13.11
2018-04-15T04:02:02.907Z,13.09
2018-04-15T04:03:02.805Z,13.09
2018-04-15T04:04:03.844Z,13.06
2018-04-15T04:05:02.763Z,13.06
2018-04-15T04:06:02.831Z,13.06
2018-04-15T04:07:02.717Z,13.04
2018-04-15T04:08:02.744Z,13.04
2018-04-15T04:09:02.668Z,13.06
2018-04-15T04:10:02.760Z,13.07
2018-04-15T04:11:02.624Z,13.07
2018-04-15T04:12:02.672Z,13.11
2018-04-15T04:13:02.581Z,13.06
2018-04-15T04:14:02.581Z,13.04
2018-04-15T04:15:02.535Z,13.06
2018-04-15T04:16:02.595Z,13.07
2018-04-15T04:17:02.485Z,13.09
2018-04-15T04:18:02.507Z,13.09
2018-04-15T04:19:02.441Z,13.06
2018-04-15T04:20:02.521Z,13.11
2018-04-15T04:21:02.397Z,13.03
2018-04-15T04:22:02.433Z,13.03
2018-04-15T04:23:02.351Z,13.06
2018-04-15T04:24:02.349Z,13.04
2018-04-15T04:25:02.303Z,13.06
2018-04-15T04:26:02.358Z,13.04
2018-04-15T04:27:02.258Z,13.07
2018-04-15T04:28:02.270Z,13.09
2018-04-15T04:29:02.212Z,12.99
2018-04-15T04:30:02.286Z,13.09
2018-04-15T04:31:02.167Z,13.07
2018-04-15T04:32:02.197Z,13.07
2018-04-15T04:33:02.122Z,13.11
2018-04-15T04:34:02.213Z,13.11
2018-04-15T04:35:02.076Z,12.99
2018-04-15T04:36:02.149Z,12.97
2018-04-15T04:37:02.031Z,13.03
2018-04-15T04:38:02.032Z,13.00
2018-04-15T04:39:01.991Z,13.02
2018-04-15T04:40:02.051Z,13.06
2018-04-15T04:41:01.944Z,13.07
2018-04-15T04:42:01.960Z,13.04
2018-04-15T04:43:01.894Z,13.03
2018-04-15T04:44:02.005Z,13.11
2018-04-15T04:45:01.902Z,13.09
2018-04-15T04:46:01.883Z,13.07
2018-04-15T04:47:01.803Z,13.06
2018-04-15T04:48:01.807Z,13.11
2018-04-15T04:49:01.760Z,13.09
2018-04-15T04:50:01.802Z,13.06
2018-04-15T04:51:01.708Z,13.09
2018-04-15T04:52:01.714Z,13.09
2018-04-15T04:53:01.667Z,13.03
2018-04-15T04:54:01.734Z,13.17
2018-04-15T04:55:01.620Z,13.11
2018-04-15T04:56:01.648Z,13.06
2018-04-15T04:57:01.575Z,13.04
2018-04-15T04:58:01.664Z,13.07
2018-04-15T04:59:01.528Z,13.07
2018-04-15T05:00:01.573Z,13.09
2018-04-15T05:01:01.484Z,13.07
2018-04-15T05:02:01.487Z,13.11
2018-04-15T05:03:01.440Z,13.03
2018-04-15T05:04:01.501Z,13.04
2018-04-15T05:05:01.395Z,13.07
2018-04-15T05:06:01.412Z,13.03
2018-04-15T05:07:01.351Z,13.07
2018-04-15T05:08:01.440Z,13.07
2018-04-15T05:09:01.305Z,13.06
2018-04-15T05:10:01.339Z,13.03
2018-04-15T05:11:01.259Z,13.07
2018-04-15T05:12:01.249Z,13.06
2018-04-15T05:13:01.213Z,13.11
2018-04-15T05:14:01.262Z,13.11
2018-04-15T05:15:01.167Z,13.06
2018-04-15T05:16:01.176Z,13.09
2018-04-15T05:17:01.122Z,13.09
2018-04-15T05:18:01.189Z,13.04
2018-04-15T05:19:01.084Z,13.22
2018-04-15T05:20:01.106Z,13.15
2018-04-15T05:21:01.028Z,13.17
2018-04-15T05:22:01.115Z,13.17
2018-04-15T05:23:00.985Z,13.18
2018-04-15T05:24:01.029Z,13.18
2018-04-15T05:25:00.940Z,13.17
2018-04-15T05:26:00.941Z,13.22
2018-04-15T05:27:00.894Z,13.11
2018-04-15T05:28:00.953Z,13.24
2018-04-15T05:29:00.863Z,13.27
2018-04-15T05:30:00.862Z,13.11
2018-04-15T05:31:00.806Z,13.22
2018-04-15T05:32:00.877Z,13.21
2018-04-15T05:33:00.761Z,13.24
2018-04-15T05:34:00.790Z,13.25
2018-04-15T05:35:00.712Z,13.24
2018-04-15T05:36:00.804Z,13.17
2018-04-15T05:37:00.674Z,13.21
2018-04-15T05:38:00.715Z,13.20
2018-04-15T05:39:00.623Z,13.21
2018-04-15T05:40:00.626Z,13.21
2018-04-15T05:41:00.580Z,13.18
2018-04-15T05:42:00.650Z,13.22
2018-04-15T05:43:00.534Z,13.20
2018-04-15T05:44:00.552Z,13.22
2018-04-15T05:45:00.495Z,13.21
2018-04-15T05:46:00.570Z,13.24
2018-04-15T05:47:00.445Z,13.24
2018-04-15T05:48:00.477Z,13.27
2018-04-15T05:49:00.399Z,13.22
2018-04-15T05:50:00.389Z,13.25
2018-04-15T05:51:00.355Z,13.25
2018-04-15T05:52:00.407Z,13.22
2018-04-15T05:53:00.310Z,13.24
2018-04-15T05:54:00.315Z,13.29
2018-04-15T05:55:00.262Z,13.30
2018-04-15T05:56:00.329Z,13.27
2018-04-15T05:57:00.219Z,13.32
2018-04-15T05:58:00.242Z,13.29
2018-04-15T05:59:00.172Z,13.22
2018-04-15T06:00:00.255Z,13.29
2018-04-15T06:01:00.127Z,13.22
2018-04-15T06:02:00.165Z,13.29
2018-04-15T06:03:00.084Z,13.27
2018-04-15T06:04:00.077Z,13.27
2018-04-15T06:05:00.038Z,13.22
2018-04-15T06:06:00.093Z,13.30
2018-04-15T06:06:59.993Z,13.32
2018-04-15T06:08:00.003Z,13.29
2018-04-15T06:08:59.949Z,13.27
2018-04-15T06:10:00.020Z,13.25
2018-04-15T06:10:59.906Z,13.33
2018-04-15T06:11:59.931Z,13.30
2018-04-15T06:12:59.863Z,13.30
2018-04-15T06:13:59.944Z,13.29
2018-04-15T06:14:59.812Z,13.32
2018-04-15T06:15:59.855Z,13.33
2018-04-15T06:16:59.773Z,13.32
2018-04-15T06:17:59.767Z,13.27
2018-04-15T06:18:59.722Z,13.27
2018-04-15T06:19:59.781Z,13.30
2018-04-15T06:20:59.678Z,13.32
2018-04-15T06:21:59.691Z,13.32
2018-04-15T06:22:59.633Z,13.37
2018-04-15T06:23:59.708Z,13.46
2018-04-15T06:24:59.590Z,13.46
2018-04-15T06:25:59.617Z,13.52
2018-04-15T06:26:59.545Z,13.55
2018-04-15T06:27:59.635Z,13.49
2018-04-15T06:28:59.496Z,13.58
2018-04-15T06:29:59.544Z,13.49
2018-04-15T06:30:59.450Z,13.54
2018-04-15T06:31:59.454Z,13.51
2018-04-15T06:32:59.430Z,13.67
2018-04-15T06:33:59.469Z,13.62
2018-04-15T06:34:59.361Z,13.62
2018-04-15T06:35:59.381Z,13.52
2018-04-15T06:36:59.318Z,13.62
2018-04-15T06:37:59.393Z,13.54
2018-04-15T06:38:59.272Z,13.56
2018-04-15T06:39:59.307Z,13.56
2018-04-15T06:40:59.229Z,13.47
2018-04-15T06:41:59.216Z,13.54
2018-04-15T06:42:59.183Z,13.58
2018-04-15T06:43:59.231Z,13.67
2018-04-15T06:44:59.143Z,13.62
2018-04-15T06:45:59.148Z,13.67
2018-04-15T06:46:59.092Z,13.63
2018-04-15T06:47:59.157Z,13.69
2018-04-15T06:48:59.049Z,13.63
2018-04-15T06:49:59.070Z,13.74
2018-04-15T06:50:59.005Z,13.73
2018-04-15T06:51:59.083Z,13.74
2018-04-15T06:52:58.963Z,13.76
2018-04-15T06:53:59.010Z,13.74
2018-04-15T06:54:58.916Z,13.67
2018-04-15T06:55:58.908Z,13.69
2018-04-15T06:56:58.868Z,13.80
2018-04-15T06:57:58.928Z,13.79
2018-04-15T06:58:58.829Z,13.73
2018-04-15T06:59:58.837Z,13.83
2018-04-15T07:00:58.779Z,13.80
2018-04-15T07:01:58.854Z,13.81
2018-04-15T07:02:58.735Z,13.89
2018-04-15T07:03:58.765Z,13.84
2018-04-15T07:04:58.691Z,13.96
2018-04-15T07:05:58.774Z,14.01
2018-04-15T07:06:58.647Z,14.07
2018-04-15T07:07:58.685Z,13.98
2018-04-15T07:08:58.604Z,14.10
2018-04-15T07:09:58.600Z,14.06
2018-04-15T07:10:58.557Z,14.12
2018-04-15T07:11:58.614Z,14.20
2018-04-15T07:12:58.516Z,14.12
2018-04-15T07:13:58.526Z,14.20
2018-04-15T07:14:58.468Z,14.20
2018-04-15T07:15:58.538Z,14.24
2018-04-15T07:16:58.427Z,14.29
2018-04-15T07:17:58.452Z,14.19
2018-04-15T07:18:58.380Z,14.13
2018-04-15T07:19:58.465Z,14.24
2018-04-15T07:20:58.337Z,14.19
2018-04-15T07:21:58.376Z,14.21
2018-04-15T07:22:58.291Z,14.34
2018-04-15T07:23:58.289Z,14.39
2018-04-15T07:24:58.249Z,14.52
2018-04-15T07:25:58.302Z,14.52
2018-04-15T07:26:58.209Z,14.56
2018-04-15T07:27:58.213Z,14.67
2018-04-15T07:28:58.162Z,14.65
2018-04-15T07:29:58.227Z,14.86
2018-04-15T07:30:58.114Z,14.93
2018-04-15T07:31:58.139Z,14.91
2018-04-15T07:32:58.071Z,15.02
2018-04-15T07:33:58.157Z,15.12
2018-04-15T07:34:58.025Z,15.06
2018-04-15T07:35:58.063Z,15.11
2018-04-15T07:36:57.985Z,15.20
2018-04-15T07:37:58.081Z,15.21
2018-04-15T07:38:57.938Z,15.17
2018-04-15T07:39:57.989Z,15.21
2018-04-15T07:40:57.896Z,15.23
2018-04-15T07:41:57.907Z,15.27
2018-04-15T07:42:57.851Z,15.31
2018-04-15T07:43:57.916Z,15.24
2018-04-15T07:44:57.814Z,15.49
2018-04-15T07:45:57.833Z,15.43
2018-04-15T07:46:57.763Z,15.45
2018-04-15T07:47:57.837Z,15.42
2018-04-15T07:48:57.724Z,15.45
2018-04-15T07:49:57.751Z,15.42
2018-04-15T07:50:57.677Z,15.42
2018-04-15T07:51:57.762Z,15.46
2018-04-15T07:52:57.636Z,15.41
2018-04-15T07:53:57.670Z,15.43
2018-04-15T07:54:57.593Z,15.39
2018-04-15T07:55:57.588Z,15.43
2018-04-15T07:56:57.560Z,15.45
2018-04-15T07:57:57.602Z,15.39
2018-04-15T07:58:57.511Z,15.41
2018-04-15T07:59:57.512Z,15.36
2018-04-15T08:00:57.460Z,15.39
2018-04-15T08:01:57.526Z,15.33
2018-04-15T08:02:57.423Z,15.39
2018-04-15T08:03:57.439Z,15.43
2018-04-15T08:04:57.384Z,15.33
2018-04-15T08:05:57.455Z,15.36
2018-04-15T08:06:57.331Z,15.41
2018-04-15T08:07:57.365Z,15.38
2018-04-15T08:08:57.292Z,15.45
2018-04-15T08:09:57.376Z,15.49
2018-04-15T08:10:57.246Z,15.42
2018-04-15T08:11:57.295Z,15.43
2018-04-15T08:12:57.204Z,15.49
2018-04-15T08:13:57.201Z,15.52
2018-04-15T08:14:57.160Z,15.52
2018-04-15T08:15:57.217Z,15.49
2018-04-15T08:16:57.121Z,15.66
2018-04-15T08:17:57.127Z,15.66
2018-04-15T08:18:57.072Z,15.67
2018-04-15T08:19:57.139Z,15.68
2018-04-15T08:20:57.033Z,15.70
2018-04-15T08:21:57.055Z,15.75
2018-04-15T08:22:56.996Z,15.68
2018-04-15T08:23:57.082Z,15.66
2018-04-15T08:24:56.946Z,15.68
2018-04-15T08:25:56.978Z,15.74
2018-04-15T08:26:56.903Z,15.70
2018-04-15T08:27:56.993Z,15.76
2018-04-15T08:28:56.863Z,15.86
2018-04-15T08:29:56.904Z,15.84
2018-04-15T08:30:56.829Z,15.85
2018-04-15T08:31:56.953Z,15.92
2018-04-15T08:32:56.782Z,15.99
2018-04-15T08:33:56.831Z,16.00
2018-04-15T08:34:56.736Z,16.11
2018-04-15T08:35:56.741Z,16.15
2018-04-15T08:36:56.691Z,16.16
2018-04-15T08:37:56.753Z,16.16
2018-04-15T08:38:56.649Z,16.16
2018-04-15T08:39:56.667Z,16.20
2018-04-15T08:40:56.606Z,16.27
2018-04-15T08:41:56.679Z,16.30
2018-04-15T08:42:56.563Z,16.26
2018-04-15T08:43:56.591Z,16.27
2018-04-15T08:44:56.520Z,16.34
2018-04-15T08:45:56.611Z,16.35
2018-04-15T08:46:56.476Z,16.40
2018-04-15T08:47:56.523Z,16.41
2018-04-15T08:48:56.441Z,16.41
2018-04-15T08:49:56.429Z,16.52
2018-04-15T08:50:56.392Z,16.44
2018-04-15T08:51:56.450Z,16.52
2018-04-15T08:52:56.363Z,16.55
2018-04-15T08:53:56.357Z,16.52
2018-04-15T08:54:56.305Z,16.65
2018-04-15T08:55:56.370Z,16.65
2018-04-15T08:56:56.269Z,16.75
2018-04-15T08:57:56.280Z,16.74
2018-04-15T08:58:56.221Z,16.86
2018-04-15T08:59:56.300Z,16.90
2018-04-15T09:00:56.183Z,16.93
2018-04-15T09:01:56.212Z,16.99
2018-04-15T09:02:56.142Z,17.07
2018-04-15T09:03:56.220Z,17.11
2018-04-15T09:04:56.102Z,17.18
2018-04-15T09:05:56.237Z,17.23
2018-04-15T09:06:56.057Z,17.23
2018-04-15T09:07:56.145Z,17.35
2018-04-15T09:08:56.015Z,17.35
2018-04-15T09:09:56.158Z,17.50
2018-04-15T09:10:55.972Z,17.64
2018-04-15T09:11:55.952Z,17.88
2018-04-15T09:12:55.978Z,17.88
2018-04-15T09:13:55.912Z,17.97
2018-04-15T09:14:55.990Z,18.09
2018-04-15T09:15:55.873Z,18.22
2018-04-15T09:16:55.903Z,18.44
2018-04-15T09:17:55.833Z,18.58
2018-04-15T09:18:55.926Z,18.74
2018-04-15T09:19:55.788Z,18.73
2018-04-15T09:20:55.838Z,18.74
2018-04-15T09:21:55.748Z,18.73
2018-04-15T09:22:55.841Z,18.79
2018-04-15T09:23:55.707Z,18.98
2018-04-15T09:24:55.754Z,19.06
2018-04-15T09:25:55.667Z,19.10
2018-04-15T09:26:55.662Z,18.95
2018-04-15T09:27:55.628Z,19.08
2018-04-15T09:28:55.677Z,19.40
2018-04-15T09:29:55.584Z,19.66
2018-04-15T09:30:55.580Z,19.94
2018-04-15T09:31:55.553Z,20.31
2018-04-15T09:32:55.603Z,20.43
2018-04-15T09:33:55.505Z,20.61
2018-04-15T09:34:55.516Z,20.64
2018-04-15T09:35:55.473Z,20.66
2018-04-15T09:36:55.530Z,20.59
2018-04-15T09:37:55.430Z,20.20
2018-04-15T09:38:55.441Z,20.20
2018-04-15T09:39:55.401Z,20.62
2018-04-15T09:40:55.454Z,21.04
2018-04-15T09:41:55.350Z,21.09
2018-04-15T09:42:55.369Z,20.74
2018-04-15T09:43:55.312Z,20.69
2018-04-15T09:44:55.387Z,20.76
2018-04-15T09:45:55.269Z,20.79
2018-04-15T09:46:55.294Z,21.11
2018-04-15T09:47:55.230Z,21.56
2018-04-15T09:48:55.307Z,22.09
2018-04-15T09:49:55.199Z,22.25
2018-04-15T09:50:55.236Z,22.02
2018-04-15T09:51:55.156Z,21.91
2018-04-15T09:52:55.233Z,21.76
2018-04-15T09:53:55.118Z,21.95
2018-04-15T09:54:55.143Z,22.19
2018-04-15T09:55:55.078Z,22.20
2018-04-15T09:56:55.157Z,22.02
2018-04-15T09:57:55.043Z,21.99
2018-04-15T09:58:55.070Z,21.67
2018-04-15T09:59:55.003Z,21.72
2018-04-15T10:00:55.083Z,21.14
2018-04-15T10:01:54.978Z,21.05
2018-04-15T10:02:54.999Z,21.08
2018-04-15T10:03:54.931Z,21.17
2018-04-15T10:04:55.007Z,21.44
2018-04-15T10:05:54.892Z,21.72
2018-04-15T10:06:54.924Z,21.97
2018-04-15T10:07:54.856Z,22.16
2018-04-15T10:08:54.936Z,22.39
2018-04-15T10:09:54.820Z,22.54
2018-04-15T10:10:54.894Z,22.62
2018-04-15T10:11:54.780Z,22.69
2018-04-15T10:12:54.860Z,22.89
2018-04-15T10:13:54.755Z,23.14
2018-04-15T10:14:54.771Z,23.72
2018-04-15T10:15:54.712Z,23.83
2018-04-15T10:16:54.817Z,23.62
2018-04-15T10:17:54.675Z,23.40
2018-04-15T10:18:54.698Z,23.65
2018-04-15T10:19:54.640Z,24.01
2018-04-15T10:20:54.711Z,24.29
2018-04-15T10:21:54.603Z,24.67
2018-04-15T10:22:54.623Z,24.94
2018-04-15T10:23:54.570Z,25.10
2018-04-15T10:24:54.636Z,25.15
2018-04-15T10:25:54.536Z,25.02
2018-04-15T10:26:54.551Z,24.85
2018-04-15T10:27:54.502Z,25.06
2018-04-15T10:28:54.565Z,25.17
2018-04-15T10:29:54.468Z,25.22
2018-04-15T10:30:54.579Z,25.32
2018-04-15T10:31:54.434Z,25.02
2018-04-15T10:32:54.490Z,24.77
2018-04-15T10:33:54.403Z,24.24
2018-04-15T10:34:54.427Z,23.80
2018-04-15T10:35:54.368Z,23.90
2018-04-15T10:36:54.405Z,24.02
2018-04-15T10:37:54.335Z,24.16
2018-04-15T10:38:54.428Z,23.72
2018-04-15T10:39:54.304Z,23.85
2018-04-15T10:40:54.342Z,23.61
2018-04-15T10:41:54.271Z,23.29
2018-04-15T10:42:54.355Z,23.31
2018-04-15T10:43:54.241Z,23.61
2018-04-15T10:44:54.267Z,23.71
2018-04-15T10:45:54.209Z,23.55
2018-04-15T10:46:54.282Z,23.08
2018-04-15T10:47:54.174Z,22.84
2018-04-15T10:48:54.192Z,22.64
2018-04-15T10:49:54.143Z,22.27
2018-04-15T10:50:54.210Z,21.90
2018-04-15T10:51:54.111Z,21.79
2018-04-15T10:52:54.117Z,21.82
2018-04-15T10:53:54.083Z,21.79
2018-04-15T10:54:54.139Z,22.01
2018-04-15T10:55:54.048Z,22.20
2018-04-15T10:56:54.050Z,22.17
2018-04-15T10:57:54.016Z,22.07
2018-04-15T10:58:54.061Z,21.54
2018-04-15T10:59:54.050Z,21.21
2018-04-15T11:00:54.077Z,21.06
2018-04-15T11:01:53.951Z,20.99
2018-04-15T11:02:54.001Z,20.76
2018-04-15T11:03:53.918Z,20.99
2018-04-15T11:04:54.005Z,21.14
2018-04-15T11:05:53.889Z,21.13
2018-04-15T11:06:53.911Z,21.09
2018-04-15T11:07:53.855Z,21.20
2018-04-15T11:08:53.937Z,21.24
2018-04-15T11:09:53.820Z,21.16
2018-04-15T11:10:53.840Z,21.04
2018-04-15T11:11:53.788Z,21.11
2018-04-15T11:12:53.852Z,21.04
2018-04-15T11:13:53.794Z,21.05
2018-04-15T11:14:53.765Z,21.09
2018-04-15T11:15:53.723Z,21.27
2018-04-15T11:16:53.780Z,21.39
2018-04-15T11:17:53.686Z,21.57
2018-04-15T11:18:53.695Z,21.79
2018-04-15T11:19:53.655Z,22.07
2018-04-15T11:20:53.705Z,22.32
2018-04-15T11:21:53.621Z,22.35
2018-04-15T11:22:53.718Z,22.50
2018-04-15T11:23:53.588Z,22.49
2018-04-15T11:24:53.629Z,22.23
2018-04-15T11:25:53.564Z,22.09
2018-04-15T11:26:53.644Z,22.22
2018-04-15T11:27:53.523Z,22.38
2018-04-15T11:28:53.608Z,22.57
2018-04-15T11:29:53.497Z,22.80
2018-04-15T11:30:53.572Z,22.87
2018-04-15T11:31:53.456Z,23.07
2018-04-15T11:32:53.477Z,23.45
2018-04-15T11:33:53.423Z,23.71
2018-04-15T11:34:53.497Z,23.82
2018-04-15T11:35:53.396Z,23.89
2018-04-15T11:36:53.404Z,23.85
2018-04-15T11:37:53.362Z,23.75
2018-04-15T11:38:53.419Z,23.57
2018-04-15T11:39:53.330Z,23.43
2018-04-15T11:40:53.328Z,23.23
2018-04-15T11:41:53.302Z,23.23
2018-04-15T11:42:53.341Z,23.14
2018-04-15T11:43:53.268Z,22.78
2018-04-15T11:44:53.359Z,22.52
2018-04-15T11:45:53.236Z,22.39
2018-04-15T11:46:53.269Z,22.35
2018-04-15T11:47:53.204Z,22.31
2018-04-15T11:48:53.281Z,22.22
2018-04-15T11:49:53.185Z,22.10
2018-04-15T11:50:53.193Z,21.76
2018-04-15T11:51:53.139Z,21.45
2018-04-15T11:52:53.212Z,21.29
2018-04-15T11:53:53.109Z,21.17
2018-04-15T11:54:53.135Z,21.09
2018-04-15T11:55:53.074Z,20.79
2018-04-15T11:56:53.135Z,20.76
2018-04-15T11:57:53.039Z,20.77
2018-04-15T11:58:53.046Z,20.74
2018-04-15T11:59:53.011Z,20.74
2018-04-15T12:00:53.115Z,20.81
2018-04-15T12:01:52.977Z,20.79
2018-04-15T12:02:53.073Z,20.74
2018-04-15T12:03:52.944Z,20.47
2018-04-15T12:04:52.935Z,20.47
2018-04-15T12:05:52.998Z,20.56
2018-04-15T12:06:52.895Z,20.58
2018-04-15T12:07:52.905Z,20.80
2018-04-15T12:08:52.859Z,20.96
2018-04-15T12:09:52.846Z,20.99
2018-04-15T12:10:52.924Z,21.16
2018-04-15T12:11:52.812Z,21.48
2018-04-15T12:12:52.937Z,21.74
2018-04-15T12:13:52.776Z,21.97
2018-04-15T12:14:52.850Z,22.37
2018-04-15T12:15:52.748Z,22.46
2018-04-15T12:16:52.761Z,22.60
2018-04-15T12:17:52.712Z,22.74
2018-04-15T12:18:52.777Z,22.96
2018-04-15T12:19:52.680Z,23.02
2018-04-15T12:20:52.688Z,23.23
2018-04-15T12:21:52.649Z,23.43
2018-04-15T12:22:52.702Z,23.68
2018-04-15T12:23:52.612Z,23.82
2018-04-15T12:24:52.602Z,23.89
2018-04-15T12:25:52.582Z,23.55
2018-04-15T12:26:52.629Z,23.08
2018-04-15T12:27:52.550Z,22.71
2018-04-15T12:28:52.641Z,22.29
2018-04-15T12:29:52.518Z,22.19
2018-04-15T12:30:52.506Z,22.01
2018-04-15T12:31:52.564Z,21.78
2018-04-15T12:32:52.474Z,21.71
2018-04-15T12:33:52.517Z,21.56
2018-04-15T12:34:52.439Z,21.51
2018-04-15T12:35:52.499Z,21.53
2018-04-15T12:36:52.411Z,21.34
2018-04-15T12:37:52.501Z,21.13
2018-04-15T12:38:52.377Z,21.08
2018-04-15T12:39:52.416Z,20.99
2018-04-15T12:40:52.347Z,21.02
2018-04-15T12:41:52.430Z,21.13
2018-04-15T12:42:52.319Z,21.13
2018-04-15T12:43:52.339Z,21.29
2018-04-15T12:44:52.281Z,21.32
2018-04-15T12:45:52.352Z,21.42
2018-04-15T12:46:52.249Z,21.42
2018-04-15T12:47:52.265Z,21.54
2018-04-15T12:48:52.216Z,21.48
2018-04-15T12:49:52.278Z,21.51
2018-04-15T12:50:52.182Z,21.50
2018-04-15T12:51:52.190Z,21.42